createdAt,value
2022-12-28T00:00:34.991Z,101544.91
2022-12-28T00:03:42.354Z,101540.78
2022-12-28T00:11:31.266Z,101543.22
2022-12-28T00:15:38.136Z,101532.81
2022-12-28T00:20:31.687Z,101531.81
2022-12-28T00:23:16.034Z,101523.88
2022-12-28T00:26:55.688Z,101518.56
2022-12-28T00:34:31.711Z,101511.66
2022-12-28T00:37:57.927Z,101500.06
2022-12-28T00:48:24.192Z,101511.75
2022-12-28T01:13:06.109Z,101494.88
2022-12-28T01:16:10.968Z,101488.59
2022-12-28T01:19:41.881Z,101488.81
2022-12-28T01:22:37.835Z,101478.19
2022-12-28T01:29:58.949Z,101466.72
2022-12-28T01:37:01.997Z,101463.13
2022-12-28T01:40:36.393Z,101450.69
2022-12-28T01:44:18.160Z,101441.88
2022-12-28T01:47:41.498Z,101439.34
2022-12-28T01:58:49.714Z,101411.81
2022-12-28T02:02:21.846Z,101411.91
2022-12-28T02:09:18.011Z,101390.66
2022-12-28T02:15:59.299Z,101382.59
2022-12-28T02:19:15.640Z,101378.25
2022-12-28T02:33:58.247Z,101354.38
2022-12-28T02:40:05.343Z,101334.19
2022-12-28T02:43:22.199Z,101330.56
2022-12-28T02:46:50.058Z,101324.41
2022-12-28T02:53:39.422Z,101310.38
2022-12-28T02:56:40.825Z,101308.50
2022-12-28T03:00:18.954Z,101302.31
2022-12-28T03:03:09.724Z,101293.41
2022-12-28T03:06:25.558Z,101282.16
2022-12-28T03:09:50.840Z,101274.91
2022-12-28T03:12:43.176Z,101264.53
2022-12-28T03:16:38.990Z,101258.25
2022-12-28T03:19:46.107Z,101252.84
2022-12-28T03:22:52.045Z,101243.06
2022-12-28T03:26:28.349Z,101236.16
2022-12-28T03:29:51.887Z,101239.69
2022-12-28T03:33:00.332Z,101229.06
2022-12-28T03:36:10.059Z,101225.78
2022-12-28T03:39:03.855Z,101218.44
2022-12-28T03:42:54.080Z,101216.84
2022-12-28T03:46:00.879Z,101206.34
2022-12-28T03:49:26.212Z,101199.13
2022-12-28T03:52:39.988Z,101193.94
2022-12-28T04:02:08.116Z,101172.56
2022-12-28T04:05:18.332Z,101170.88
2022-12-28T04:07:47.321Z,101166.41
2022-12-28T04:10:16.017Z,101163.84
2022-12-28T04:12:47.199Z,101147.81
2022-12-28T04:15:30.258Z,101148.78
2022-12-28T04:18:02.682Z,101152.28
2022-12-28T04:20:31.726Z,101139.22
2022-12-28T04:23:01.096Z,101135.53
2022-12-28T04:25:30.441Z,101129.59
2022-12-28T04:28:01.589Z,101128.28
2022-12-28T04:31:06.742Z,101115.22
2022-12-28T04:33:36.945Z,101127.44
2022-12-28T04:36:10.776Z,101117.78
2022-12-28T04:38:41.355Z,101119.69
2022-12-28T04:41:11.058Z,101107.25
2022-12-28T04:43:44.893Z,101116.06
2022-12-28T04:46:15.773Z,101102.06
2022-12-28T04:48:46.642Z,101094.00
2022-12-28T04:51:19.640Z,101093.16
2022-12-28T04:53:49.323Z,101091.44
2022-12-28T04:56:19.708Z,101094.97
2022-12-28T04:58:50.678Z,101092.31
2022-12-28T05:01:22.162Z,101094.00
2022-12-28T05:03:55.831Z,101086.13
2022-12-28T05:06:28.710Z,101094.00
2022-12-28T05:08:59.793Z,101087.84
2022-12-28T05:11:29.473Z,101088.91
2022-12-28T05:14:00.893Z,101084.47
2022-12-28T05:16:32.149Z,101085.31
2022-12-28T05:19:01.361Z,101079.16
2022-12-28T05:21:30.442Z,101075.63
2022-12-28T05:24:02.694Z,101066.00
2022-12-28T05:26:32.649Z,101077.34
2022-12-28T05:29:03.928Z,101079.16
2022-12-28T05:31:33.157Z,101080.00
2022-12-28T05:34:02.529Z,101075.53
2022-12-28T05:36:38.176Z,101067.78
2022-12-28T05:39:07.740Z,101065.78
2022-12-28T05:41:36.649Z,101052.72
2022-12-28T05:44:11.355Z,101061.41
2022-12-28T05:46:43.793Z,101059.59
2022-12-28T05:49:12.618Z,101058.03
2022-12-28T05:51:44.385Z,101053.56
2022-12-28T05:54:13.718Z,101047.31
2022-12-28T05:56:43.242Z,101042.22
2022-12-28T05:59:14.838Z,101033.41
2022-12-28T06:01:45.629Z,101033.28
2022-12-28T06:04:16.876Z,101027.13
2022-12-28T06:06:46.756Z,101032.44
2022-12-28T06:09:16.255Z,101014.59
2022-12-28T06:11:46.895Z,101017.50
2022-12-28T06:14:18.037Z,101019.16
2022-12-28T06:16:48.016Z,101022.53
2022-12-28T06:19:17.128Z,101016.50
2022-12-28T06:21:48.110Z,101013.13
2022-12-28T06:24:19.687Z,100999.75
2022-12-28T06:26:51.308Z,101005.06
2022-12-28T06:29:22.452Z,101003.34
2022-12-28T06:31:54.767Z,100995.50
2022-12-28T06:34:23.613Z,100999.88
2022-12-28T06:36:53.439Z,100987.44
2022-12-28T06:39:22.311Z,100991.91
2022-12-28T06:41:51.276Z,100980.44
2022-12-28T06:44:25.157Z,100987.44
2022-12-28T06:46:54.494Z,100975.97
2022-12-28T06:49:23.588Z,100981.28
2022-12-28T06:51:52.191Z,100978.50
2022-12-28T06:54:20.700Z,100981.28
2022-12-28T06:56:49.962Z,100975.03
2022-12-28T06:59:18.592Z,100973.22
2022-12-28T07:01:53.773Z,100973.22
2022-12-28T07:04:22.348Z,100960.28
2022-12-28T07:06:50.634Z,100954.84
2022-12-28T07:09:20.260Z,100953.16
2022-12-28T07:11:54.076Z,100946.91
2022-12-28T07:14:24.043Z,100951.38
2022-12-28T07:16:54.720Z,100944.97
2022-12-28T07:19:25.768Z,100943.53
2022-12-28T07:21:55.566Z,100932.06
2022-12-28T07:24:25.440Z,100934.56
2022-12-28T07:26:54.602Z,100927.59
2022-12-28T07:29:24.827Z,100934.56
2022-12-28T07:31:57.504Z,100930.97
2022-12-28T07:34:28.043Z,100918.41
2022-12-28T07:36:57.617Z,100913.22
2022-12-28T07:39:30.303Z,100924.72
2022-12-28T07:42:02.921Z,100916.75
2022-12-28T07:44:38.165Z,100906.13
2022-12-28T07:47:09.776Z,100900.22
2022-12-28T07:49:38.855Z,100888.72
2022-12-28T07:52:07.997Z,100885.97
2022-12-28T07:54:40.909Z,100884.16
2022-12-28T07:57:13.241Z,100877.88
2022-12-28T07:59:42.347Z,100882.59
2022-12-28T08:02:14.661Z,100886.81
2022-12-28T08:04:47.421Z,100877.28
2022-12-28T08:07:19.785Z,100882.59
2022-12-28T08:09:49.829Z,100884.28
2022-12-28T08:12:18.832Z,100884.28
2022-12-28T08:14:49.011Z,100880.66
2022-12-28T08:17:21.773Z,100872.81
2022-12-28T08:19:51.808Z,100878.13
2022-12-28T08:22:21.945Z,100884.28
2022-12-28T08:24:52.109Z,100882.34
2022-12-28T08:27:21.733Z,100871.03
2022-12-28T08:29:52.200Z,100870.03
2022-12-28T08:32:27.380Z,100870.16
2022-12-28T08:34:58.370Z,100866.44
2022-12-28T08:37:29.761Z,100858.59
2022-12-28T08:39:59.519Z,100855.09
2022-12-28T08:42:29.026Z,100851.56
2022-12-28T08:44:58.139Z,100841.94
2022-12-28T08:47:31.303Z,100842.66
2022-12-28T08:50:00.936Z,100838.31
2022-12-28T08:52:30.732Z,100839.28
2022-12-28T08:55:00.149Z,100834.81
2022-12-28T08:57:29.660Z,100848.22
2022-12-28T09:00:00.883Z,100842.66
2022-12-28T09:02:35.595Z,100837.59
2022-12-28T09:05:06.371Z,100825.03
2022-12-28T09:07:35.577Z,100828.69
2022-12-28T09:10:06.383Z,100826.97
2022-12-28T09:12:35.929Z,100818.19
2022-12-28T09:15:04.656Z,100821.91
2022-12-28T09:17:36.729Z,100824.31
2022-12-28T09:20:06.650Z,100823.50
2022-12-28T09:22:37.623Z,100825.16
2022-12-28T09:25:09.053Z,100821.66
2022-12-28T09:27:38.742Z,100823.38
2022-12-28T09:30:09.598Z,100827.69
2022-12-28T09:32:40.843Z,100799.47
2022-12-28T09:35:09.816Z,100797.78
2022-12-28T09:37:38.800Z,100799.72
2022-12-28T09:40:10.998Z,100801.28
2022-12-28T09:42:41.215Z,100797.78
2022-12-28T09:45:12.950Z,100791.53
2022-12-28T09:47:47.719Z,100791.53
2022-12-28T09:50:29.145Z,100786.56
2022-12-28T09:53:18.460Z,100787.88
2022-12-28T09:55:51.063Z,100770.41
2022-12-28T09:58:21.370Z,100777.66
2022-12-28T10:00:56.621Z,100765.34
2022-12-28T10:03:28.284Z,100770.41
2022-12-28T10:05:58.630Z,100769.53
2022-12-28T10:08:27.708Z,100769.44
2022-12-28T10:10:58.407Z,100756.16
2022-12-28T10:13:53.614Z,100755.19
2022-12-28T10:16:19.900Z,100758.94
2022-12-28T10:18:52.242Z,100764.97
2022-12-28T10:21:31.613Z,100762.44
2022-12-28T10:24:30.344Z,100743.00
2022-12-28T10:26:51.999Z,100740.34
2022-12-28T10:29:21.963Z,100732.53
2022-12-28T10:32:00.563Z,100738.69
2022-12-28T10:34:34.006Z,100729.03
2022-12-28T10:37:06.477Z,100721.94
2022-12-28T10:39:46.162Z,100726.13
2022-12-28T10:42:21.672Z,100717.34
2022-12-28T10:44:50.926Z,100720.09
2022-12-28T10:47:27.890Z,100720.81
2022-12-28T10:52:51.012Z,100719.88
2022-12-28T10:55:29.372Z,100713.81
2022-12-28T11:00:55.334Z,100704.31
2022-12-28T11:03:28.438Z,100704.19
2022-12-28T11:06:11.774Z,100696.22
2022-12-28T11:08:41.852Z,100688.25
2022-12-28T11:11:18.555Z,100684.91
2022-12-28T11:13:49.372Z,100684.78
2022-12-28T11:16:18.557Z,100683.66
2022-12-28T11:18:47.225Z,100686.56
2022-12-28T11:21:20.234Z,100676.66
2022-12-28T11:23:49.127Z,100686.56
2022-12-28T11:26:18.961Z,100687.28
2022-12-28T11:28:48.938Z,100679.31
2022-12-28T11:31:24.801Z,100674.88
2022-12-28T11:33:55.199Z,100669.56
2022-12-28T11:36:26.830Z,100681.84
2022-12-28T11:38:56.794Z,100666.91
2022-12-28T11:42:02.822Z,100668.97
2022-12-28T11:44:51.359Z,100663.38
2022-12-28T11:47:34.138Z,100664.38
2022-12-28T11:50:42.748Z,100663.66
2022-12-28T11:53:25.636Z,100658.25
2022-12-28T11:56:05.350Z,100661.59
2022-12-28T11:58:46.880Z,100659.06
2022-12-28T12:01:42.851Z,100656.41
2022-12-28T12:04:19.479Z,100649.41
2022-12-28T12:07:16.131Z,100650.13
2022-12-28T12:09:48.986Z,100651.81
2022-12-28T12:12:38.210Z,100650.13
2022-12-28T12:15:12.501Z,100645.69
2022-12-28T12:17:44.920Z,100646.50
2022-12-28T12:20:25.763Z,100645.69
2022-12-28T12:22:57.275Z,100630.47
2022-12-28T12:25:31.380Z,100631.41
2022-12-28T12:28:01.849Z,100629.63
2022-12-28T12:30:30.384Z,100618.28
2022-12-28T12:33:01.980Z,100620.81
2022-12-28T12:35:33.892Z,100609.59
2022-12-28T12:38:03.712Z,100608.66
2022-12-28T12:40:56.029Z,100613.97
2022-12-28T12:43:29.922Z,100613.84
2022-12-28T12:46:05.889Z,100605.75
2022-12-28T12:48:52.104Z,100601.41
2022-12-28T12:51:24.141Z,100601.41
2022-12-28T12:54:19.742Z,100605.75
2022-12-28T12:56:55.755Z,100600.44
2022-12-28T12:59:52.461Z,100611.06
2022-12-28T13:02:39.946Z,100600.16
2022-12-28T13:05:09.184Z,100599.22
2022-12-28T13:07:38.051Z,100594.84
2022-12-28T13:10:09.103Z,100591.81
2022-12-28T13:12:43.958Z,100596.31
2022-12-28T13:15:19.495Z,100602.31
2022-12-28T13:18:26.177Z,100601.59
2022-12-28T13:20:57.348Z,100602.31
2022-12-28T13:23:28.894Z,100594.34
2022-12-28T13:26:01.457Z,100586.41
2022-12-28T13:28:34.649Z,100587.63
2022-12-28T13:31:12.001Z,100592.66
2022-12-28T13:33:42.403Z,100591.81
2022-12-28T13:36:22.116Z,100589.03
2022-12-28T13:39:04.998Z,100585.69
2022-12-28T13:41:36.118Z,100591.00
2022-12-28T13:44:26.332Z,100588.09
2022-12-28T13:47:00.534Z,100586.53
2022-12-28T13:49:30.032Z,100591.00
2022-12-28T13:52:01.643Z,100588.47
2022-12-28T13:54:33.212Z,100587.63
2022-12-28T13:57:44.210Z,100591.00
2022-12-28T13:59:56.796Z,100582.31
2022-12-28T14:02:25.288Z,100592.81
2022-12-28T14:04:55.521Z,100596.44
2022-12-28T14:07:27.579Z,100587.75
2022-12-28T14:09:57.930Z,100583.88
2022-12-28T14:12:27.052Z,100584.00
2022-12-28T14:14:58.918Z,100598.13
2022-12-28T14:17:27.461Z,100595.72
2022-12-28T14:19:56.279Z,100594.84
2022-12-28T14:22:33.763Z,100587.88
2022-12-28T14:25:07.781Z,100590.53
2022-12-28T14:27:39.180Z,100595.72
2022-12-28T14:30:32.508Z,100586.19
2022-12-28T14:36:30.702Z,100589.53
2022-12-28T14:40:15.842Z,100601.16
2022-12-28T14:43:37.403Z,100590.41
2022-12-28T14:50:38.689Z,100595.72
2022-12-28T14:57:41.180Z,100597.66
2022-12-28T15:08:11.009Z,100596.81
2022-12-28T15:18:45.506Z,100589.81
2022-12-28T15:21:44.133Z,100591.63
2022-12-28T15:29:00.036Z,100583.66
2022-12-28T15:35:41.499Z,100583.78
2022-12-28T15:42:38.247Z,100578.63
2022-12-28T15:53:05.510Z,100587.28
2022-12-28T15:56:44.397Z,100581.28
2022-12-28T15:59:53.375Z,100581.28
2022-12-28T16:07:18.516Z,100584.78
2022-12-28T16:10:10.280Z,100570.78
2022-12-28T16:13:46.626Z,100563.53
2022-12-28T16:21:59.608Z,100568.00
2022-12-28T16:29:17.935Z,100559.31
2022-12-28T16:44:12.770Z,100567.41
2022-12-28T16:59:01.149Z,100571.75
2022-12-28T17:11:18.257Z,100565.59
2022-12-28T17:40:47.013Z,100549.94
2022-12-28T17:44:32.979Z,100551.47
2022-12-28T17:48:07.724Z,100546.16
2022-12-28T17:52:00.916Z,100540.88
2022-12-28T17:55:18.838Z,100535.84
2022-12-28T17:58:56.278Z,100536.41
2022-12-28T18:02:51.000Z,100533.19
2022-12-28T18:10:30.076Z,100522.44
2022-12-28T18:25:42.109Z,100515.56
2022-12-28T18:33:40.509Z,100508.19
2022-12-28T18:46:56.268Z,100500.34
2022-12-28T18:49:24.535Z,100488.91
2022-12-28T18:51:51.979Z,100492.53
2022-12-28T18:54:19.755Z,100486.38
2022-12-28T18:56:47.255Z,100487.34
2022-12-28T18:59:14.693Z,100488.09
2022-12-28T19:04:31.088Z,100489.75
2022-12-28T19:06:59.160Z,100490.72
2022-12-28T19:09:26.918Z,100490.84
2022-12-28T19:11:54.355Z,100492.53
2022-12-28T19:14:21.797Z,100495.06
2022-12-28T19:16:49.270Z,100485.56
2022-12-28T19:19:17.804Z,100487.34
2022-12-28T19:21:46.656Z,100486.38
2022-12-28T19:24:15.683Z,100487.09
2022-12-28T19:26:43.281Z,100484.44
2022-12-28T19:29:11.397Z,100481.06
2022-12-28T19:31:38.880Z,100483.72
2022-12-28T19:34:06.376Z,100482.78
2022-12-28T19:36:33.849Z,100482.78
2022-12-28T19:39:02.608Z,100485.56
2022-12-28T19:41:30.081Z,100473.00
2022-12-28T19:43:57.549Z,100480.13
2022-12-28T19:46:30.944Z,100481.06
2022-12-28T19:48:59.036Z,100481.06
2022-12-28T19:51:30.734Z,100472.16
2022-12-28T19:53:59.325Z,100451.19
2022-12-28T19:56:28.400Z,100445.88
2022-12-28T19:59:03.009Z,100451.88
2022-12-28T20:01:32.869Z,100435.97
2022-12-28T20:04:00.544Z,100428.25
2022-12-28T20:06:28.885Z,100414.03
2022-12-28T20:08:57.306Z,100425.34
2022-12-28T20:11:24.899Z,100417.41
2022-12-28T20:13:54.082Z,100421.88
2022-12-28T20:16:22.070Z,100415.44
2022-12-28T20:18:49.870Z,100413.78
2022-12-28T20:21:19.564Z,100406.78
2022-12-28T20:23:48.409Z,100417.41
2022-12-28T20:26:15.924Z,100421.88
2022-12-28T20:28:43.399Z,100423.53
2022-12-28T20:31:13.649Z,100408.75
2022-12-28T20:33:41.190Z,100409.56
2022-12-28T20:36:11.130Z,100420.75
2022-12-28T20:38:38.640Z,100428.84
2022-12-28T20:41:06.925Z,100415.69
2022-12-28T20:43:33.478Z,100414.88
2022-12-28T20:46:01.023Z,100408.59
2022-12-28T20:48:29.898Z,100406.78
2022-12-28T20:50:57.925Z,100400.66
2022-12-28T20:53:25.599Z,100391.13
2022-12-28T20:55:53.097Z,100390.88
2022-12-28T20:58:20.668Z,100390.03
2022-12-28T21:00:48.291Z,100380.50
2022-12-28T21:03:15.764Z,100372.44
2022-12-28T21:05:44.564Z,100378.56
2022-12-28T21:08:12.020Z,100374.25
2022-12-28T21:10:39.541Z,100366.16
2022-12-28T21:13:07.007Z,100352.03
2022-12-28T21:15:34.524Z,100345.06
2022-12-28T21:18:02.647Z,100331.09
2022-12-28T21:20:35.466Z,100326.63
2022-12-28T21:23:07.358Z,100324.81
2022-12-28T21:25:35.099Z,100314.19
2022-12-28T21:28:02.517Z,100307.22
2022-12-28T21:30:29.936Z,100306.09
2022-12-28T21:32:57.367Z,100302.75
2022-12-28T21:35:27.816Z,100300.91
2022-12-28T21:37:59.523Z,100308.06
2022-12-28T21:40:28.237Z,100299.25
2022-12-28T21:42:56.148Z,100292.13
2022-12-28T21:45:23.721Z,100287.78
2022-12-28T21:47:51.196Z,100297.31
2022-12-28T21:50:18.766Z,100297.56
2022-12-28T21:52:46.196Z,100291.31
2022-12-28T21:55:31.279Z,100286.00
2022-12-28T21:58:01.018Z,100265.72
2022-12-28T22:00:46.479Z,100255.13
2022-12-28T22:03:31.656Z,100249.00
2022-12-28T22:06:06.108Z,100243.56
2022-12-28T22:08:51.216Z,100239.22
2022-12-28T22:11:36.614Z,100233.91
2022-12-28T22:14:05.509Z,100226.91
2022-12-28T22:16:33.826Z,100219.09
2022-12-28T22:19:03.044Z,100218.94
2022-12-28T22:21:31.088Z,100216.28
2022-12-28T22:23:58.720Z,100218.94
2022-12-28T22:26:26.215Z,100210.16
2022-12-28T22:28:53.642Z,100215.47
2022-12-28T22:31:22.444Z,100216.28
2022-12-28T22:33:50.559Z,100208.34
2022-12-28T22:36:18.751Z,100209.06
2022-12-28T22:38:46.439Z,100201.38
2022-12-28T22:41:13.876Z,100196.75
2022-12-28T22:43:41.360Z,100194.25
2022-12-28T22:46:09.832Z,100194.25
2022-12-28T22:48:38.701Z,100188.09
2022-12-28T22:51:07.119Z,100183.75
2022-12-28T22:53:35.254Z,100185.19
2022-12-28T22:56:03.441Z,100178.31
2022-12-28T22:58:30.935Z,100180.84
2022-12-28T23:01:06.768Z,100180.00
2022-12-28T23:03:34.351Z,100182.66
2022-12-28T23:06:03.190Z,100187.84
2022-12-28T23:08:30.693Z,100179.16
2022-12-28T23:10:59.013Z,100170.50
2022-12-28T23:13:26.721Z,100170.50
2022-12-28T23:15:57.324Z,100173.03
2022-12-28T23:18:42.522Z,100171.91
2022-12-28T23:21:33.199Z,100167.59
2022-12-28T23:24:18.493Z,100150.13
2022-12-28T23:27:03.842Z,100149.16
2022-12-28T23:29:31.348Z,100147.47
2022-12-28T23:31:58.827Z,100138.53
2022-12-28T23:34:26.217Z,100147.31
2022-12-28T23:36:54.926Z,100142.00
2022-12-28T23:39:23.123Z,100129.75
2022-12-28T23:41:50.563Z,100131.72
2022-12-28T23:44:18.504Z,100133.38
2022-12-28T23:46:46.086Z,100125.41
2022-12-28T23:49:14.051Z,100128.06
2022-12-28T23:51:41.745Z,100115.50
2022-12-28T23:54:10.449Z,100114.78
2022-12-28T23:56:37.871Z,100107.53
2022-12-28T23:59:05.412Z,100105.19
